createdAt,value
2023-01-30T00:02:39.987Z,6.20
2023-01-30T00:05:27.745Z,6.20
2023-01-30T00:08:10.913Z,6.20
2023-01-30T00:11:01.775Z,6.10
2023-01-30T00:13:44.049Z,6.10
2023-01-30T00:16:32.950Z,6.10
2023-01-30T00:19:14.932Z,6.20
2023-01-30T00:22:02.745Z,6.20
2023-01-30T00:24:52.772Z,6.10
2023-01-30T00:27:34.749Z,6.10
2023-01-30T00:30:25.344Z,6.00
2023-01-30T00:33:07.726Z,6.00
2023-01-30T00:35:58.761Z,6.10
2023-01-30T00:38:47.011Z,6.10
2023-01-30T00:41:29.745Z,6.10
2023-01-30T00:44:29.298Z,6.10
2023-01-30T00:47:17.840Z,6.10
2023-01-30T00:50:01.649Z,6.20
2023-01-30T00:52:50.763Z,6.30
2023-01-30T00:55:38.750Z,6.40
2023-01-30T00:58:22.070Z,6.40
2023-01-30T01:01:09.821Z,6.40
2023-01-30T01:03:51.937Z,6.40
2023-01-30T01:06:39.768Z,6.40
2023-01-30T01:09:21.983Z,6.40
2023-01-30T01:12:10.878Z,6.30
2023-01-30T01:14:54.016Z,6.50
2023-01-30T01:17:42.751Z,6.60
2023-01-30T01:20:26.331Z,6.60
2023-01-30T01:23:14.777Z,6.70
2023-01-30T01:26:05.764Z,6.60
2023-01-30T01:28:47.927Z,6.60
2023-01-30T01:31:37.909Z,6.50
2023-01-30T01:34:19.608Z,6.60
2023-01-30T01:37:08.741Z,6.60
2023-01-30T01:40:05.564Z,6.60
2023-01-30T01:42:54.755Z,6.50
2023-01-30T01:45:36.961Z,6.60
2023-01-30T01:48:30.757Z,6.50
2023-01-30T01:51:31.796Z,6.50
2023-01-30T01:54:20.508Z,6.50
2023-01-30T01:57:08.844Z,6.50
2023-01-30T01:59:53.715Z,6.60
2023-01-30T02:02:42.843Z,6.60
2023-01-30T02:05:29.703Z,6.70
2023-01-30T02:08:22.773Z,6.70
2023-01-30T02:11:10.756Z,6.80
2023-01-30T02:14:00.762Z,6.80
2023-01-30T02:16:44.657Z,6.90
2023-01-30T02:19:45.776Z,6.80
2023-01-30T02:23:14.768Z,6.80
2023-01-30T02:26:24.230Z,6.70
2023-01-30T02:30:03.811Z,6.80
2023-01-30T02:32:54.004Z,6.90
2023-01-30T02:35:56.881Z,7.00
2023-01-30T02:39:00.835Z,7.00
2023-01-30T02:41:48.840Z,7.00
2023-01-30T02:44:44.800Z,6.90
2023-01-30T02:47:38.055Z,7.00
2023-01-30T02:50:26.786Z,7.00
2023-01-30T02:53:09.042Z,7.00
2023-01-30T02:55:57.876Z,7.10
2023-01-30T02:58:44.831Z,7.10
2023-01-30T03:01:54.851Z,7.10
2023-01-30T03:04:52.406Z,7.00
2023-01-30T03:07:52.832Z,7.10
2023-01-30T03:10:43.472Z,7.10
2023-01-30T03:13:39.764Z,7.10
2023-01-30T03:16:27.128Z,7.10
2023-01-30T03:19:16.848Z,7.10
2023-01-30T03:22:06.799Z,7.10
2023-01-30T03:24:50.000Z,7.10
2023-01-30T03:27:38.872Z,7.10
2023-01-30T03:30:21.958Z,7.10
2023-01-30T03:33:19.771Z,7.20
2023-01-30T03:36:02.024Z,7.10
2023-01-30T03:38:50.777Z,7.20
2023-01-30T03:41:35.051Z,7.20
2023-01-30T03:44:22.783Z,7.30
2023-01-30T03:47:05.062Z,7.30
2023-01-30T03:49:52.787Z,7.30
2023-01-30T03:52:41.817Z,7.30
2023-01-30T03:55:27.270Z,7.30
2023-01-30T03:58:16.848Z,7.30
2023-01-30T04:00:59.909Z,7.40
2023-01-30T04:03:48.861Z,7.40
2023-01-30T04:06:30.864Z,7.50
2023-01-30T04:09:20.828Z,7.40
2023-01-30T04:12:02.849Z,7.30
2023-01-30T04:14:59.810Z,7.20
2023-01-30T04:18:02.809Z,7.20
2023-01-30T04:21:07.069Z,7.30
2023-01-30T04:23:54.799Z,7.30
2023-01-30T04:26:37.133Z,7.30
2023-01-30T04:29:25.235Z,7.30
2023-01-30T04:32:10.940Z,7.30
2023-01-30T04:34:59.871Z,7.30
2023-01-30T04:37:41.973Z,7.30
2023-01-30T04:40:33.924Z,7.30
2023-01-30T04:43:16.017Z,7.30
2023-01-30T04:46:31.824Z,7.40
2023-01-30T04:49:24.273Z,7.40
2023-01-30T04:52:08.828Z,7.30
2023-01-30T04:54:57.866Z,7.30
2023-01-30T04:57:39.675Z,7.50
2023-01-30T05:00:28.871Z,7.40
2023-01-30T05:03:11.873Z,7.50
2023-01-30T05:06:02.815Z,7.40
2023-01-30T05:08:46.811Z,7.50
2023-01-30T05:11:36.839Z,7.50
2023-01-30T05:14:18.966Z,7.60
2023-01-30T05:17:07.857Z,7.60
2023-01-30T05:19:56.847Z,7.60
2023-01-30T05:22:43.057Z,7.60
2023-01-30T05:25:31.828Z,7.60
2023-01-30T05:28:14.105Z,7.70
2023-01-30T05:31:02.946Z,7.70
2023-01-30T05:33:45.047Z,7.70
2023-01-30T05:36:33.895Z,7.80
2023-01-30T05:39:24.227Z,7.80
2023-01-30T05:42:05.942Z,8.00
2023-01-30T05:44:54.840Z,8.00
2023-01-30T05:47:37.064Z,8.00
2023-01-30T05:50:25.873Z,8.00
2023-01-30T05:53:08.117Z,8.00
2023-01-30T05:56:04.905Z,8.00
2023-01-30T05:58:47.064Z,8.10
2023-01-30T06:01:35.846Z,8.10
2023-01-30T06:04:18.138Z,8.10
2023-01-30T06:07:06.848Z,8.20
2023-01-30T06:09:55.841Z,8.20
2023-01-30T06:12:39.231Z,8.20
2023-01-30T06:15:27.936Z,8.10
2023-01-30T06:18:09.939Z,8.20
2023-01-30T06:21:01.871Z,8.10
2023-01-30T06:23:44.393Z,8.10
2023-01-30T06:26:32.957Z,8.20
2023-01-30T06:29:16.343Z,8.30
2023-01-30T06:32:04.868Z,8.30
2023-01-30T06:34:46.809Z,8.30
2023-01-30T06:37:35.917Z,8.30
2023-01-30T06:40:25.328Z,8.20
2023-01-30T06:43:07.007Z,8.20
2023-01-30T06:45:57.047Z,8.30
2023-01-30T06:48:39.043Z,8.30
2023-01-30T06:51:26.847Z,8.40
2023-01-30T06:54:09.051Z,8.40
2023-01-30T06:56:57.860Z,8.40
2023-01-30T06:59:40.150Z,8.50
2023-01-30T07:02:29.915Z,8.50
2023-01-30T07:05:20.103Z,8.60
2023-01-30T07:08:01.844Z,8.60
2023-01-30T07:10:50.975Z,8.70
2023-01-30T07:13:32.846Z,8.70
2023-01-30T07:16:22.947Z,8.70
2023-01-30T07:19:06.276Z,8.80
2023-01-30T07:21:54.934Z,8.70
2023-01-30T07:24:36.908Z,8.70
2023-01-30T07:27:26.863Z,8.70
2023-01-30T07:30:09.987Z,8.70
2023-01-30T07:32:58.867Z,8.70
2023-01-30T07:35:55.860Z,8.70
2023-01-30T07:38:44.154Z,8.70
2023-01-30T07:41:25.913Z,8.80
2023-01-30T07:44:08.083Z,8.80
2023-01-30T07:46:56.907Z,8.80
2023-01-30T07:49:38.791Z,8.80
2023-01-30T07:52:28.873Z,8.80
2023-01-30T07:55:11.163Z,8.80
2023-01-30T07:57:59.856Z,8.80
2023-01-30T08:00:41.790Z,8.70
2023-01-30T08:03:31.865Z,8.80
2023-01-30T08:06:20.889Z,8.80
2023-01-30T08:09:04.071Z,8.70
2023-01-30T08:11:51.873Z,8.70
2023-01-30T08:14:34.152Z,8.70
2023-01-30T08:17:21.986Z,8.80
2023-01-30T08:20:04.666Z,8.80
2023-01-30T08:22:51.898Z,8.70
2023-01-30T08:25:35.488Z,8.70
2023-01-30T08:28:22.896Z,8.70
2023-01-30T08:31:05.296Z,8.80
2023-01-30T08:33:52.873Z,8.70
2023-01-30T08:36:41.893Z,8.70
2023-01-30T08:39:37.371Z,8.70
2023-01-30T08:42:27.008Z,8.60
2023-01-30T08:45:09.099Z,8.50
2023-01-30T08:47:56.901Z,8.50
2023-01-30T08:50:40.131Z,8.40
2023-01-30T08:53:28.881Z,8.40
2023-01-30T08:56:11.168Z,8.40
2023-01-30T08:59:00.893Z,8.40
2023-01-30T09:01:49.966Z,8.40
2023-01-30T09:04:32.189Z,8.40
2023-01-30T09:07:20.893Z,8.40
2023-01-30T09:10:02.896Z,8.40
2023-01-30T09:12:51.886Z,8.50
2023-01-30T09:15:35.298Z,8.60
2023-01-30T09:18:24.285Z,8.70
2023-01-30T09:21:07.438Z,8.70
2023-01-30T09:23:55.900Z,8.60
2023-01-30T09:26:37.887Z,8.60
2023-01-30T09:29:26.906Z,8.70
2023-01-30T09:32:16.894Z,8.80
2023-01-30T09:34:59.191Z,8.80
2023-01-30T09:37:53.882Z,8.80
2023-01-30T09:40:39.505Z,8.70
2023-01-30T09:43:39.888Z,8.70
2023-01-30T09:46:30.171Z,8.80
2023-01-30T09:49:32.917Z,8.80
2023-01-30T09:52:29.491Z,8.80
2023-01-30T09:55:25.946Z,8.80
2023-01-30T09:58:09.179Z,8.80
2023-01-30T10:01:00.944Z,8.80
2023-01-30T10:03:53.903Z,8.90
2023-01-30T10:06:44.004Z,8.90
2023-01-30T10:09:43.960Z,9.00
2023-01-30T10:12:39.184Z,9.10
2023-01-30T10:15:42.997Z,9.00
2023-01-30T10:18:53.273Z,9.10
2023-01-30T10:21:54.913Z,9.10
2023-01-30T10:24:52.213Z,9.10
2023-01-30T10:27:43.921Z,9.10
2023-01-30T10:30:26.504Z,9.10
2023-01-30T10:33:18.915Z,9.20
2023-01-30T10:36:12.013Z,9.20
2023-01-30T10:39:10.031Z,9.20
2023-01-30T10:42:06.918Z,9.40
2023-01-30T10:44:49.190Z,9.60
2023-01-30T10:47:51.949Z,9.70
2023-01-30T10:50:44.579Z,9.60
2023-01-30T10:53:41.918Z,9.60
2023-01-30T10:56:32.193Z,9.60
2023-01-30T10:59:30.975Z,9.60
2023-01-30T11:02:35.964Z,9.80
2023-01-30T11:05:21.555Z,9.80
2023-01-30T11:08:09.935Z,10.00
2023-01-30T11:10:52.740Z,10.10
2023-01-30T11:13:46.045Z,10.10
2023-01-30T11:16:28.526Z,10.10
2023-01-30T11:19:21.857Z,10.10
2023-01-30T11:22:06.874Z,10.20
2023-01-30T11:24:58.017Z,10.10
2023-01-30T11:27:43.249Z,10.20
2023-01-30T11:30:35.014Z,10.10
2023-01-30T11:33:27.980Z,10.10
2023-01-30T11:36:12.160Z,10.20
2023-01-30T11:39:06.055Z,10.10
2023-01-30T11:41:51.163Z,10.20
2023-01-30T11:44:42.003Z,10.30
2023-01-30T11:47:32.208Z,10.10
2023-01-30T11:50:30.728Z,10.00
2023-01-30T11:53:31.159Z,10.00
2023-01-30T11:56:26.942Z,10.10
2023-01-30T11:59:12.164Z,10.30
2023-01-30T12:02:09.024Z,10.30
2023-01-30T12:05:00.977Z,10.20
2023-01-30T12:07:46.432Z,10.30
2023-01-30T12:10:45.960Z,10.20
2023-01-30T12:13:35.387Z,10.00
2023-01-30T12:16:33.962Z,10.00
2023-01-30T12:19:29.202Z,10.10
2023-01-30T12:22:31.061Z,10.10
2023-01-30T12:25:20.142Z,10.00
2023-01-30T12:28:15.995Z,10.10
2023-01-30T12:31:09.960Z,10.20
2023-01-30T12:33:54.621Z,10.10
2023-01-30T12:36:51.963Z,10.10
2023-01-30T12:40:00.969Z,10.20
2023-01-30T12:43:26.034Z,10.10
2023-01-30T12:46:19.258Z,10.00
2023-01-30T12:49:27.967Z,10.10
2023-01-30T12:52:30.247Z,10.10
2023-01-30T12:55:33.962Z,10.20
2023-01-30T12:58:29.969Z,9.90
2023-01-30T13:01:29.501Z,9.90
2023-01-30T13:04:22.017Z,9.80
2023-01-30T13:07:12.215Z,9.90
2023-01-30T13:10:13.439Z,9.80
2023-01-30T13:13:10.300Z,9.90
2023-01-30T13:16:05.036Z,10.00
2023-01-30T13:18:53.781Z,10.10
2023-01-30T13:21:49.965Z,10.20
2023-01-30T13:24:44.279Z,9.90
2023-01-30T13:27:35.980Z,9.90
2023-01-30T13:30:20.680Z,9.90
2023-01-30T13:33:12.960Z,9.70
2023-01-30T13:36:05.971Z,9.80
2023-01-30T13:39:10.963Z,9.90
2023-01-30T13:42:02.976Z,9.90
2023-01-30T13:44:50.276Z,10.00
2023-01-30T13:47:53.094Z,10.00
2023-01-30T13:50:48.227Z,9.70
2023-01-30T13:53:40.998Z,9.70
2023-01-30T13:56:44.424Z,9.80
2023-01-30T13:59:52.994Z,9.80
2023-01-30T14:02:42.030Z,9.90
2023-01-30T14:06:04.208Z,9.80
2023-01-30T14:08:58.133Z,9.70
2023-01-30T14:11:49.137Z,9.40
2023-01-30T14:14:47.091Z,9.40
2023-01-30T14:17:29.708Z,9.40
2023-01-30T14:20:29.008Z,9.50
2023-01-30T14:23:23.325Z,9.60
2023-01-30T14:26:14.065Z,9.50
2023-01-30T14:28:55.912Z,9.50
2023-01-30T14:32:03.144Z,9.30
2023-01-30T14:34:45.978Z,9.40
2023-01-30T14:38:26.021Z,9.40
2023-01-30T14:41:28.658Z,9.60
2023-01-30T14:44:17.024Z,9.90
2023-01-30T14:46:59.093Z,9.90
2023-01-30T14:49:49.081Z,10.00
2023-01-30T14:52:45.057Z,9.90
2023-01-30T14:55:30.853Z,9.90
2023-01-30T14:58:26.023Z,9.80
2023-01-30T15:01:08.328Z,9.60
2023-01-30T15:03:56.999Z,9.60
2023-01-30T15:06:43.295Z,9.60
2023-01-30T15:09:34.996Z,9.50
2023-01-30T15:12:34.215Z,9.50
2023-01-30T15:15:32.142Z,9.70
2023-01-30T15:18:41.283Z,9.80
2023-01-30T15:21:44.009Z,9.90
2023-01-30T15:25:04.050Z,10.00
2023-01-30T15:28:00.229Z,9.90
2023-01-30T15:31:08.134Z,10.00
2023-01-30T15:33:56.809Z,10.00
2023-01-30T15:36:45.078Z,9.90
2023-01-30T15:39:41.990Z,9.80
2023-01-30T15:42:31.170Z,9.60
2023-01-30T15:45:19.325Z,9.30
2023-01-30T15:48:37.063Z,9.30
2023-01-30T15:51:21.282Z,9.40
2023-01-30T15:54:16.059Z,9.40
2023-01-30T15:56:58.219Z,9.30
2023-01-30T15:59:47.028Z,9.30
2023-01-30T16:02:44.131Z,9.50
2023-01-30T16:05:28.116Z,9.60
2023-01-30T16:08:33.012Z,9.30
2023-01-30T16:11:14.994Z,9.20
2023-01-30T16:14:04.054Z,9.20
2023-01-30T16:16:53.177Z,9.30
2023-01-30T16:19:44.029Z,9.30
2023-01-30T16:22:33.770Z,9.10
2023-01-30T16:25:33.044Z,9.30
2023-01-30T16:28:21.329Z,9.30
2023-01-30T16:31:15.243Z,9.30
2023-01-30T16:34:04.008Z,9.40
2023-01-30T16:36:48.227Z,9.60
2023-01-30T16:39:41.071Z,9.70
2023-01-30T16:42:30.877Z,9.80
2023-01-30T16:46:06.034Z,9.70
2023-01-30T16:48:50.233Z,9.50
2023-01-30T16:51:39.174Z,9.10
2023-01-30T16:54:30.330Z,9.00
2023-01-30T16:57:34.052Z,9.00
2023-01-30T17:00:35.085Z,9.20
2023-01-30T17:03:24.396Z,9.20
2023-01-30T17:06:19.013Z,9.40
2023-01-30T17:09:02.277Z,9.50
2023-01-30T17:14:40.353Z,9.20
2023-01-30T17:17:29.040Z,9.10
2023-01-30T17:20:11.948Z,8.80
2023-01-30T17:23:04.049Z,9.00
2023-01-30T17:25:48.034Z,9.20
2023-01-30T17:28:37.096Z,9.30
2023-01-30T17:31:21.078Z,9.30
2023-01-30T17:34:10.122Z,9.40
2023-01-30T17:36:54.120Z,9.50
2023-01-30T17:39:43.063Z,9.30
2023-01-30T17:42:38.039Z,9.40
2023-01-30T17:45:20.267Z,9.40
2023-01-30T17:48:11.112Z,9.10
2023-01-30T17:50:53.107Z,9.10
2023-01-30T17:53:42.112Z,9.00
2023-01-30T17:56:28.220Z,8.90
2023-01-30T17:59:18.050Z,8.90
2023-01-30T18:02:00.483Z,9.00
2023-01-30T18:04:50.160Z,9.00
2023-01-30T18:07:34.008Z,8.90
2023-01-30T18:10:22.244Z,9.00
2023-01-30T18:13:11.030Z,9.10
2023-01-30T18:15:57.511Z,8.90
2023-01-30T18:18:46.075Z,8.90
2023-01-30T18:21:29.542Z,9.00
2023-01-30T18:24:21.055Z,9.00
2023-01-30T18:27:03.036Z,9.20
2023-01-30T18:29:53.051Z,9.20
2023-01-30T18:32:37.725Z,8.90
2023-01-30T18:35:26.059Z,8.90
2023-01-30T18:38:16.088Z,9.10
2023-01-30T18:41:06.376Z,9.00
2023-01-30T18:43:48.093Z,9.00
2023-01-30T18:46:31.455Z,9.10
2023-01-30T18:49:20.072Z,9.10
2023-01-30T18:52:01.989Z,9.10
2023-01-30T18:54:52.093Z,9.10
2023-01-30T18:57:34.031Z,9.10
2023-01-30T19:00:26.076Z,9.10
2023-01-30T19:03:08.065Z,9.20
2023-01-30T19:05:57.090Z,9.20
2023-01-30T19:08:45.122Z,9.10
2023-01-30T19:11:48.006Z,9.20
2023-01-30T19:14:39.074Z,9.30
2023-01-30T19:17:21.224Z,9.40
2023-01-30T19:20:11.121Z,9.40
2023-01-30T19:22:54.895Z,9.40
2023-01-30T19:25:43.083Z,9.50
2023-01-30T19:28:26.701Z,9.40
2023-01-30T19:31:16.162Z,9.40
2023-01-30T19:34:11.061Z,9.40
2023-01-30T19:36:53.053Z,9.40
2023-01-30T19:39:42.070Z,9.60
2023-01-30T19:42:24.830Z,9.50
2023-01-30T19:45:14.118Z,9.40
2023-01-30T19:47:56.027Z,9.30
2023-01-30T19:50:45.072Z,9.40
2023-01-30T19:53:27.625Z,9.40
2023-01-30T19:56:16.126Z,9.40
2023-01-30T19:59:02.714Z,9.40
2023-01-30T20:01:52.135Z,9.30
2023-01-30T20:04:40.109Z,9.20
2023-01-30T20:07:22.381Z,9.10
2023-01-30T20:10:11.105Z,9.20
2023-01-30T20:12:53.303Z,9.10
2023-01-30T20:15:42.092Z,9.00
2023-01-30T20:18:25.560Z,8.90
2023-01-30T20:21:15.103Z,8.90
2023-01-30T20:23:57.469Z,8.90
2023-01-30T20:26:48.393Z,8.70
2023-01-30T20:29:37.191Z,8.70
2023-01-30T20:32:19.128Z,8.60
2023-01-30T20:35:09.165Z,8.60
2023-01-30T20:37:51.108Z,8.60
2023-01-30T20:40:41.185Z,8.60
2023-01-30T20:43:23.099Z,8.60
2023-01-30T20:46:23.191Z,8.60
2023-01-30T20:49:05.569Z,8.60
2023-01-30T20:51:55.112Z,8.50
2023-01-30T20:54:50.116Z,8.50
2023-01-30T20:57:32.223Z,8.50
2023-01-30T21:00:22.202Z,8.50
2023-01-30T21:03:04.268Z,8.50
2023-01-30T21:05:53.142Z,8.40
2023-01-30T21:08:38.435Z,8.40
2023-01-30T21:11:28.152Z,8.30
2023-01-30T21:14:12.413Z,8.20
2023-01-30T21:17:01.589Z,8.10
2023-01-30T21:19:43.663Z,8.00
2023-01-30T21:22:32.138Z,8.00
2023-01-30T21:25:22.190Z,8.00
2023-01-30T21:28:04.293Z,7.90
2023-01-30T21:30:53.220Z,7.90
2023-01-30T21:33:36.685Z,7.90
2023-01-30T21:36:25.555Z,7.80
2023-01-30T21:39:25.415Z,7.80
2023-01-30T21:42:33.168Z,7.80
2023-01-30T21:45:16.488Z,7.70
2023-01-30T21:48:05.198Z,7.70
2023-01-30T21:50:54.115Z,7.60
2023-01-30T21:53:36.533Z,7.60
2023-01-30T21:56:25.532Z,7.60
2023-01-30T21:59:08.994Z,7.60
2023-01-30T22:01:59.184Z,7.60
2023-01-30T22:04:41.133Z,7.60
2023-01-30T22:07:30.107Z,7.70
2023-01-30T22:10:12.747Z,7.70
2023-01-30T22:13:01.137Z,7.60
2023-01-30T22:15:45.952Z,7.60
2023-01-30T22:18:35.133Z,7.60
2023-01-30T22:21:25.499Z,7.50
2023-01-30T22:24:07.464Z,7.50
2023-01-30T22:26:55.250Z,7.40
2023-01-30T22:29:37.403Z,7.30
2023-01-30T22:32:27.127Z,7.40
2023-01-30T22:35:09.379Z,7.40
2023-01-30T22:37:57.136Z,7.50
2023-01-30T22:40:45.389Z,7.50
2023-01-30T22:43:27.180Z,7.40
2023-01-30T22:46:13.361Z,7.40
2023-01-30T22:49:04.156Z,7.40
2023-01-30T22:51:52.109Z,7.50
2023-01-30T22:54:34.312Z,7.50
2023-01-30T22:57:22.183Z,7.40
2023-01-30T23:00:04.381Z,7.40
2023-01-30T23:02:53.151Z,7.40
2023-01-30T23:05:37.003Z,7.40
2023-01-30T23:08:25.795Z,7.40
2023-01-30T23:11:14.500Z,7.40
2023-01-30T23:14:05.248Z,7.40
2023-01-30T23:16:57.169Z,7.40
2023-01-30T23:19:37.978Z,7.50
2023-01-30T23:22:28.208Z,7.50
2023-01-30T23:25:11.159Z,7.60
2023-01-30T23:28:00.160Z,7.50
2023-01-30T23:30:42.121Z,7.50
2023-01-30T23:33:31.182Z,7.50
2023-01-30T23:36:14.844Z,7.40
2023-01-30T23:39:06.235Z,7.30
2023-01-30T23:41:48.054Z,7.30
2023-01-30T23:44:37.588Z,7.20
2023-01-30T23:47:25.464Z,7.20
2023-01-30T23:50:07.422Z,7.20
2023-01-30T23:52:56.153Z,7.10
2023-01-30T23:55:39.884Z,7.10
2023-01-30T23:58:27.172Z,7.00
